createdAt,value
2023-02-05T00:00:17.471Z,100504.31
2023-02-05T00:02:44.583Z,100504.16
2023-02-05T00:05:11.116Z,100501.44
2023-02-05T00:07:37.633Z,100497.84
2023-02-05T00:10:04.909Z,100489.47
2023-02-05T00:12:31.415Z,100486.72
2023-02-05T00:14:57.848Z,100487.22
2023-02-05T00:17:24.323Z,100481.78
2023-02-05T00:19:50.811Z,100479.53
2023-02-05T00:22:17.318Z,100483.88
2023-02-05T00:24:43.900Z,100477.75
2023-02-05T00:27:10.381Z,100484.19
2023-02-05T00:29:36.864Z,100477.84
2023-02-05T00:32:03.489Z,100483.22
2023-02-05T00:34:29.979Z,100484.34
2023-02-05T00:36:56.446Z,100489.16
2023-02-05T00:39:23.031Z,100492.81
2023-02-05T00:41:49.507Z,100486.31
2023-02-05T00:44:15.958Z,100485.22
2023-02-05T00:46:43.597Z,100482.72
2023-02-05T00:49:10.034Z,100485.88
2023-02-05T00:51:36.499Z,100486.22
2023-02-05T00:54:03.001Z,100483.81
2023-02-05T00:56:29.472Z,100473.00
2023-02-05T00:58:57.500Z,100470.81
2023-02-05T01:01:24.046Z,100459.63
2023-02-05T01:03:50.581Z,100451.16
2023-02-05T01:06:17.214Z,100462.53
2023-02-05T01:08:44.175Z,100460.28
2023-02-05T01:11:11.385Z,100454.72
2023-02-05T01:13:39.434Z,100454.91
2023-02-05T01:16:06.635Z,100454.13
2023-02-05T01:18:33.376Z,100446.59
2023-02-05T01:20:59.875Z,100437.63
2023-02-05T01:23:26.359Z,100443.19
2023-02-05T01:25:52.999Z,100437.88
2023-02-05T01:28:19.460Z,100433.81
2023-02-05T01:30:50.393Z,100430.19
2023-02-05T01:33:17.724Z,100437.03
2023-02-05T01:35:44.941Z,100435.44
2023-02-05T01:38:15.022Z,100434.34
2023-02-05T01:40:42.175Z,100435.81
2023-02-05T01:43:14.103Z,100431.91
2023-02-05T01:46:14.897Z,100427.50
2023-02-05T01:48:46.382Z,100427.75
2023-02-05T01:51:15.065Z,100423.91
2023-02-05T01:53:42.968Z,100417.47
2023-02-05T01:56:19.634Z,100412.75
2023-02-05T01:58:52.535Z,100406.78
2023-02-05T02:01:19.148Z,100404.00
2023-02-05T02:03:47.490Z,100402.13
2023-02-05T02:06:13.944Z,100408.75
2023-02-05T02:08:40.404Z,100397.97
2023-02-05T02:11:10.227Z,100388.66
2023-02-05T02:13:38.597Z,100384.34
2023-02-05T02:16:06.593Z,100388.00
2023-02-05T02:18:34.812Z,100393.50
2023-02-05T02:21:10.269Z,100390.88
2023-02-05T02:24:07.738Z,100384.63
2023-02-05T02:26:42.511Z,100388.34
2023-02-05T02:29:18.129Z,100395.94
2023-02-05T02:31:56.535Z,100387.47
2023-02-05T02:34:41.125Z,100389.97
2023-02-05T02:37:18.723Z,100371.81
2023-02-05T02:39:58.892Z,100367.56
2023-02-05T02:42:40.994Z,100364.31
2023-02-05T02:45:09.901Z,100368.16
2023-02-05T02:47:47.158Z,100358.75
2023-02-05T02:50:21.273Z,100356.31
2023-02-05T02:52:51.190Z,100358.84
2023-02-05T02:55:20.177Z,100361.22
2023-02-05T02:57:51.491Z,100372.00
2023-02-05T03:00:26.866Z,100364.66
2023-02-05T03:03:00.536Z,100368.44
2023-02-05T03:05:28.842Z,100356.44
2023-02-05T03:08:07.893Z,100343.56
2023-02-05T03:10:44.474Z,100345.50
2023-02-05T03:13:13.978Z,100343.63
2023-02-05T03:15:46.684Z,100343.47
2023-02-05T03:18:15.142Z,100338.56
2023-02-05T03:20:51.415Z,100334.28
2023-02-05T03:23:18.605Z,100328.59
2023-02-05T03:25:45.277Z,100337.19
2023-02-05T03:28:13.653Z,100335.28
2023-02-05T03:30:48.097Z,100344.81
2023-02-05T03:33:29.619Z,100342.50
2023-02-05T03:36:17.305Z,100340.97
2023-02-05T03:39:26.047Z,100341.78
2023-02-05T03:42:28.239Z,100340.69
2023-02-05T03:45:33.417Z,100329.38
2023-02-05T03:48:12.491Z,100326.63
2023-02-05T03:50:55.471Z,100322.75
2023-02-05T03:53:54.320Z,100315.94
2023-02-05T03:56:31.599Z,100322.53
2023-02-05T03:58:59.224Z,100325.78
2023-02-05T04:01:26.816Z,100333.09
2023-02-05T04:03:53.383Z,100329.41
2023-02-05T04:06:19.852Z,100335.34
2023-02-05T04:08:48.449Z,100338.88
2023-02-05T04:11:15.667Z,100350.84
2023-02-05T04:13:44.412Z,100344.94
2023-02-05T04:16:12.025Z,100353.47
2023-02-05T04:18:39.075Z,100358.59
2023-02-05T04:21:05.670Z,100358.56
2023-02-05T04:23:35.614Z,100361.03
2023-02-05T04:26:02.438Z,100357.91
2023-02-05T04:28:35.233Z,100353.22
2023-02-05T04:31:07.619Z,100354.88
2023-02-05T04:33:34.585Z,100356.66
2023-02-05T04:36:01.464Z,100348.78
2023-02-05T04:38:28.717Z,100344.81
2023-02-05T04:40:55.450Z,100338.16
2023-02-05T04:43:21.931Z,100336.34
2023-02-05T04:45:48.502Z,100338.72
2023-02-05T04:48:15.043Z,100335.94
2023-02-05T04:50:41.526Z,100318.47
2023-02-05T04:53:08.074Z,100324.66
2023-02-05T04:55:34.780Z,100316.34
2023-02-05T04:58:01.555Z,100309.28
2023-02-05T05:00:28.131Z,100325.50
2023-02-05T05:02:54.718Z,100329.88
2023-02-05T05:05:21.167Z,100334.31
2023-02-05T05:07:48.748Z,100334.50
2023-02-05T05:10:15.350Z,100328.41
2023-02-05T05:12:42.153Z,100322.06
2023-02-05T05:15:09.135Z,100337.69
2023-02-05T05:17:35.672Z,100334.09
2023-02-05T05:20:02.548Z,100332.06
2023-02-05T05:22:28.995Z,100330.91
2023-02-05T05:24:55.436Z,100330.56
2023-02-05T05:27:23.092Z,100333.94
2023-02-05T05:29:49.639Z,100329.47
2023-02-05T05:32:16.514Z,100332.72
2023-02-05T05:34:43.002Z,100330.97
2023-02-05T05:37:09.433Z,100334.59
2023-02-05T05:39:54.581Z,100327.06
2023-02-05T05:42:39.415Z,100335.38
2023-02-05T05:45:06.123Z,100341.03
2023-02-05T05:47:32.534Z,100329.56
2023-02-05T05:49:58.991Z,100333.66
2023-02-05T05:52:25.431Z,100335.88
2023-02-05T05:54:52.056Z,100328.31
2023-02-05T05:57:18.512Z,100332.09
2023-02-05T05:59:44.971Z,100331.03
2023-02-05T06:02:11.468Z,100337.00
2023-02-05T06:04:37.957Z,100330.19
2023-02-05T06:07:04.539Z,100332.47
2023-02-05T06:09:31.108Z,100333.44
2023-02-05T06:11:57.636Z,100341.31
2023-02-05T06:14:24.187Z,100339.03
2023-02-05T06:16:52.020Z,100342.81
2023-02-05T06:19:18.642Z,100342.22
2023-02-05T06:21:45.064Z,100339.63
2023-02-05T06:24:11.605Z,100335.34
2023-02-05T06:26:38.031Z,100345.34
2023-02-05T06:29:04.507Z,100335.75
2023-02-05T06:31:31.809Z,100331.72
2023-02-05T06:33:58.610Z,100329.66
2023-02-05T06:36:25.118Z,100322.25
2023-02-05T06:38:51.610Z,100312.88
2023-02-05T06:41:18.220Z,100315.50
2023-02-05T06:43:44.894Z,100301.00
2023-02-05T06:46:11.397Z,100320.38
2023-02-05T06:48:37.872Z,100305.63
2023-02-05T06:51:04.618Z,100304.41
2023-02-05T06:53:31.050Z,100298.34
2023-02-05T06:55:58.934Z,100289.91
2023-02-05T06:58:25.428Z,100296.75
2023-02-05T07:00:51.889Z,100310.69
2023-02-05T07:03:18.327Z,100314.19
2023-02-05T07:05:44.904Z,100313.03
2023-02-05T07:08:11.437Z,100312.19
2023-02-05T07:10:37.934Z,100312.59
2023-02-05T07:13:05.930Z,100312.97
2023-02-05T07:15:35.315Z,100315.50
2023-02-05T07:18:01.989Z,100321.28
2023-02-05T07:20:28.618Z,100316.75
2023-02-05T07:22:55.218Z,100324.81
2023-02-05T07:25:21.818Z,100331.44
2023-02-05T07:27:48.327Z,100336.22
2023-02-05T07:30:15.161Z,100338.75
2023-02-05T07:32:41.648Z,100328.94
2023-02-05T07:35:08.246Z,100323.53
2023-02-05T07:37:37.263Z,100328.22
2023-02-05T07:40:04.135Z,100326.28
2023-02-05T07:42:31.693Z,100324.44
2023-02-05T07:45:00.781Z,100318.56
2023-02-05T07:47:27.206Z,100309.94
2023-02-05T07:49:53.673Z,100315.19
2023-02-05T07:52:20.105Z,100320.41
2023-02-05T07:54:46.645Z,100301.09
2023-02-05T07:57:13.463Z,100309.75
2023-02-05T07:59:40.148Z,100297.09
2023-02-05T08:02:06.685Z,100299.31
2023-02-05T08:04:33.260Z,100304.84
2023-02-05T08:06:59.774Z,100299.19
2023-02-05T08:09:26.287Z,100301.31
2023-02-05T08:11:52.767Z,100306.91
2023-02-05T08:14:19.873Z,100302.56
2023-02-05T08:16:46.406Z,100299.19
2023-02-05T08:19:17.913Z,100305.47
2023-02-05T08:21:44.541Z,100298.88
2023-02-05T08:24:11.392Z,100297.72
2023-02-05T08:26:37.878Z,100292.59
2023-02-05T08:29:04.428Z,100301.19
2023-02-05T08:31:30.970Z,100291.53
2023-02-05T08:33:59.989Z,100274.84
2023-02-05T08:36:28.157Z,100264.38
2023-02-05T08:38:54.614Z,100261.19
2023-02-05T08:41:21.101Z,100263.25
2023-02-05T08:43:49.562Z,100268.94
2023-02-05T08:46:19.881Z,100273.00
2023-02-05T08:48:47.551Z,100281.66
2023-02-05T08:51:15.759Z,100275.09
2023-02-05T08:53:42.269Z,100284.13
2023-02-05T08:56:10.645Z,100275.25
2023-02-05T08:58:38.587Z,100270.81
2023-02-05T09:01:16.939Z,100261.94
2023-02-05T09:03:43.928Z,100262.28
2023-02-05T09:06:13.610Z,100266.22
2023-02-05T09:08:40.658Z,100268.78
2023-02-05T09:11:08.212Z,100261.03
2023-02-05T09:13:34.820Z,100262.31
2023-02-05T09:16:01.278Z,100261.00
2023-02-05T09:18:27.751Z,100256.25
2023-02-05T09:20:54.502Z,100261.28
2023-02-05T09:23:21.391Z,100263.41
2023-02-05T09:25:47.879Z,100260.56
2023-02-05T09:28:15.109Z,100259.97
2023-02-05T09:30:44.118Z,100259.41
2023-02-05T09:33:11.935Z,100249.53
2023-02-05T09:35:38.557Z,100246.50
2023-02-05T09:38:05.649Z,100257.84
2023-02-05T09:40:40.796Z,100253.09
2023-02-05T09:43:24.224Z,100257.91
2023-02-05T09:46:00.943Z,100253.28
2023-02-05T09:48:49.752Z,100248.38
2023-02-05T09:51:19.216Z,100241.47
2023-02-05T09:53:52.056Z,100250.13
2023-02-05T09:56:18.896Z,100247.16
2023-02-05T09:58:49.499Z,100245.94
2023-02-05T10:01:27.449Z,100246.06
2023-02-05T10:04:01.489Z,100247.47
2023-02-05T10:06:49.806Z,100243.63
2023-02-05T10:09:38.104Z,100238.19
2023-02-05T10:12:10.749Z,100231.47
2023-02-05T10:14:55.774Z,100234.09
2023-02-05T10:17:38.173Z,100229.91
2023-02-05T10:20:23.047Z,100228.59
2023-02-05T10:22:52.471Z,100233.09
2023-02-05T10:25:38.494Z,100226.44
2023-02-05T10:28:11.148Z,100223.63
2023-02-05T10:30:45.804Z,100221.13
2023-02-05T10:33:18.874Z,100220.44
2023-02-05T10:36:06.680Z,100219.47
2023-02-05T10:38:36.666Z,100219.00
2023-02-05T10:41:35.756Z,100219.00
2023-02-05T10:44:28.871Z,100207.66
2023-02-05T10:47:01.685Z,100207.66
2023-02-05T10:49:54.642Z,100204.59
2023-02-05T10:52:21.999Z,100188.41
2023-02-05T10:54:48.542Z,100189.97
2023-02-05T10:57:18.956Z,100183.06
2023-02-05T10:59:57.805Z,100181.59
2023-02-05T11:02:33.033Z,100176.72
2023-02-05T11:05:08.070Z,100173.41
2023-02-05T11:07:40.906Z,100176.28
2023-02-05T11:10:29.040Z,100167.44
2023-02-05T11:13:14.259Z,100164.81
2023-02-05T11:15:57.466Z,100164.09
2023-02-05T11:18:28.500Z,100154.72
2023-02-05T11:20:59.434Z,100148.66
2023-02-05T11:23:27.445Z,100146.28
2023-02-05T11:25:59.904Z,100134.66
2023-02-05T11:28:31.825Z,100145.69
2023-02-05T11:31:27.975Z,100136.41
2023-02-05T11:34:17.303Z,100130.56
2023-02-05T11:36:56.090Z,100132.44
2023-02-05T11:39:36.712Z,100127.22
2023-02-05T11:42:19.758Z,100115.63
2023-02-05T11:44:59.084Z,100120.16
2023-02-05T11:47:35.601Z,100115.06
2023-02-05T11:50:04.310Z,100115.19
2023-02-05T11:52:37.327Z,100113.88
2023-02-05T11:55:06.201Z,100106.97
2023-02-05T11:57:35.782Z,100112.22
2023-02-05T12:00:08.432Z,100111.03
2023-02-05T12:02:36.913Z,100108.53
2023-02-05T12:05:18.868Z,100111.84
2023-02-05T12:07:53.983Z,100107.44
2023-02-05T12:10:49.573Z,100110.44
2023-02-05T12:13:35.162Z,100104.81
2023-02-05T12:16:23.451Z,100115.44
2023-02-05T12:19:11.198Z,100115.66
2023-02-05T12:21:47.131Z,100112.75
2023-02-05T12:24:22.523Z,100105.78
2023-02-05T12:26:53.420Z,100102.94
2023-02-05T12:29:41.074Z,100087.00
2023-02-05T12:32:55.678Z,100099.97
2023-02-05T12:35:55.863Z,100091.94
2023-02-05T12:38:41.083Z,100090.00
2023-02-05T12:41:33.566Z,100092.38
2023-02-05T12:44:33.410Z,100086.16
2023-02-05T12:47:35.060Z,100087.66
2023-02-05T12:50:19.869Z,100093.75
2023-02-05T12:53:11.212Z,100099.81
2023-02-05T12:55:44.733Z,100097.84
2023-02-05T12:58:13.911Z,100094.13
2023-02-05T13:00:57.100Z,100091.19
2023-02-05T13:03:29.704Z,100082.47
2023-02-05T13:06:03.256Z,100089.50
2023-02-05T13:08:51.513Z,100086.06
2023-02-05T13:11:25.244Z,100086.06
2023-02-05T13:13:59.939Z,100088.78
2023-02-05T13:16:37.671Z,100087.22
2023-02-05T13:19:25.925Z,100092.31
2023-02-05T13:22:13.990Z,100095.03
2023-02-05T13:25:08.136Z,100099.59
2023-02-05T13:27:59.130Z,100095.44
2023-02-05T13:30:38.294Z,100100.63
2023-02-05T13:33:07.205Z,100100.84
2023-02-05T13:35:44.064Z,100102.06
2023-02-05T13:38:19.446Z,100105.63
2023-02-05T13:40:45.829Z,100107.63
2023-02-05T13:43:22.401Z,100103.00
2023-02-05T13:46:13.160Z,100101.03
2023-02-05T13:48:59.477Z,100099.69
2023-02-05T13:52:04.393Z,100088.50
2023-02-05T13:54:51.868Z,100084.75
2023-02-05T13:57:52.176Z,100087.66
2023-02-05T14:00:19.501Z,100078.97
2023-02-05T14:02:49.427Z,100089.75
2023-02-05T14:05:27.087Z,100094.19
2023-02-05T14:07:54.546Z,100091.06
2023-02-05T14:10:27.173Z,100092.38
2023-02-05T14:13:08.360Z,100112.88
2023-02-05T14:15:38.155Z,100108.41
2023-02-05T14:18:04.973Z,100103.53
2023-02-05T14:20:35.353Z,100094.47
2023-02-05T14:23:04.160Z,100091.50
2023-02-05T14:25:36.857Z,100087.53
2023-02-05T14:28:13.323Z,100080.03
2023-02-05T14:30:53.156Z,100088.31
2023-02-05T14:33:28.094Z,100088.75
2023-02-05T14:36:24.635Z,100094.00
2023-02-05T14:38:55.396Z,100101.03
2023-02-05T14:41:27.662Z,100100.97
2023-02-05T14:43:54.106Z,100102.63
2023-02-05T14:46:25.226Z,100118.53
2023-02-05T14:48:51.878Z,100120.09
2023-02-05T14:51:31.896Z,100115.69
2023-02-05T14:54:20.404Z,100121.19
2023-02-05T14:56:50.508Z,100119.13
2023-02-05T14:59:30.103Z,100126.53
2023-02-05T15:01:58.310Z,100129.28
2023-02-05T15:04:45.184Z,100129.78
2023-02-05T15:07:17.133Z,100133.09
2023-02-05T15:09:52.225Z,100134.06
2023-02-05T15:12:18.682Z,100142.16
2023-02-05T15:14:57.134Z,100134.66
2023-02-05T15:17:29.735Z,100139.88
2023-02-05T15:20:13.425Z,100141.56
2023-02-05T15:22:54.224Z,100140.53
2023-02-05T15:25:36.586Z,100140.06
2023-02-05T15:28:14.865Z,100133.03
2023-02-05T15:31:09.226Z,100131.59
2023-02-05T15:33:45.862Z,100131.47
2023-02-05T15:36:19.998Z,100138.13
2023-02-05T15:38:53.316Z,100140.84
2023-02-05T15:41:22.037Z,100142.06
2023-02-05T15:43:59.040Z,100147.91
2023-02-05T15:46:26.412Z,100149.56
2023-02-05T15:48:53.234Z,100142.31
2023-02-05T15:51:28.462Z,100154.13
2023-02-05T15:53:57.197Z,100155.69
2023-02-05T15:56:29.462Z,100165.19
2023-02-05T15:59:10.664Z,100154.13
2023-02-05T16:01:41.923Z,100155.03
2023-02-05T16:04:31.080Z,100165.28
2023-02-05T16:06:59.325Z,100162.59
2023-02-05T16:09:28.190Z,100164.75
2023-02-05T16:11:55.637Z,100172.47
2023-02-05T16:14:25.537Z,100164.13
2023-02-05T16:17:09.095Z,100168.78
2023-02-05T16:20:14.135Z,100174.84
2023-02-05T16:22:40.714Z,100172.09
2023-02-05T16:25:26.807Z,100182.34
2023-02-05T16:27:55.894Z,100189.59
2023-02-05T16:30:40.470Z,100200.94
2023-02-05T16:33:16.430Z,100203.19
2023-02-05T16:35:47.963Z,100197.34
2023-02-05T16:38:23.126Z,100204.97
2023-02-05T16:40:54.079Z,100207.09
2023-02-05T16:43:40.654Z,100205.78
2023-02-05T16:46:07.087Z,100221.47
2023-02-05T16:48:49.457Z,100213.41
2023-02-05T16:51:35.788Z,100228.50
2023-02-05T16:54:25.559Z,100233.13
2023-02-05T16:56:58.151Z,100230.16
2023-02-05T16:59:29.240Z,100245.25
2023-02-05T17:01:56.254Z,100236.56
2023-02-05T17:04:27.913Z,100243.34
2023-02-05T17:06:59.265Z,100252.53
2023-02-05T17:09:36.148Z,100248.94
2023-02-05T17:12:21.561Z,100252.97
2023-02-05T17:14:56.882Z,100252.41
2023-02-05T17:17:25.193Z,100263.16
2023-02-05T17:20:09.772Z,100271.47
2023-02-05T17:22:36.321Z,100265.56
2023-02-05T17:25:05.222Z,100272.16
2023-02-05T17:27:35.997Z,100287.03
2023-02-05T17:30:04.912Z,100290.13
2023-02-05T17:32:32.508Z,100285.38
2023-02-05T17:35:00.384Z,100300.94
2023-02-05T17:37:26.935Z,100296.50
2023-02-05T17:39:55.157Z,100299.44
2023-02-05T17:42:25.911Z,100302.38
2023-02-05T17:44:53.656Z,100302.09
2023-02-05T17:47:20.202Z,100307.47
2023-02-05T17:49:46.733Z,100307.69
2023-02-05T17:52:15.369Z,100314.56
2023-02-05T17:54:42.672Z,100314.56
2023-02-05T17:57:20.928Z,100314.31
2023-02-05T17:59:48.876Z,100319.94
2023-02-05T18:02:16.157Z,100324.00
2023-02-05T18:04:44.774Z,100330.94
2023-02-05T18:07:21.485Z,100334.19
2023-02-05T18:09:48.261Z,100332.88
2023-02-05T18:12:14.746Z,100329.66
2023-02-05T18:14:41.185Z,100329.78
2023-02-05T18:17:07.683Z,100329.34
2023-02-05T18:19:35.001Z,100331.06
2023-02-05T18:22:02.108Z,100330.19
2023-02-05T18:24:29.046Z,100342.19
2023-02-05T18:26:55.523Z,100346.88
2023-02-05T18:29:21.973Z,100343.06
2023-02-05T18:31:49.050Z,100342.59
2023-02-05T18:34:15.729Z,100354.34
2023-02-05T18:36:42.194Z,100345.19
2023-02-05T18:39:09.729Z,100351.19
2023-02-05T18:41:38.121Z,100352.94
2023-02-05T18:44:05.012Z,100357.84
2023-02-05T18:46:31.594Z,100353.09
2023-02-05T18:48:58.121Z,100351.59
2023-02-05T18:51:24.653Z,100356.63
2023-02-05T18:53:51.154Z,100359.59
2023-02-05T18:56:19.021Z,100356.78
2023-02-05T18:58:56.139Z,100359.63
2023-02-05T19:01:23.003Z,100363.91
2023-02-05T19:03:52.655Z,100365.63
2023-02-05T19:06:19.543Z,100362.75
2023-02-05T19:08:46.083Z,100383.72
2023-02-05T19:11:15.834Z,100365.91
2023-02-05T19:13:42.892Z,100377.03
2023-02-05T19:16:12.867Z,100367.84
2023-02-05T19:18:44.748Z,100373.97
2023-02-05T19:21:13.966Z,100372.19
2023-02-05T19:23:40.958Z,100370.91
2023-02-05T19:26:09.964Z,100372.72
2023-02-05T19:28:40.886Z,100370.47
2023-02-05T19:31:10.099Z,100366.53
2023-02-05T19:33:37.312Z,100372.66
2023-02-05T19:36:06.178Z,100382.78
2023-02-05T19:38:38.262Z,100381.50
2023-02-05T19:41:26.225Z,100375.28
2023-02-05T19:43:58.356Z,100378.66
2023-02-05T19:46:31.479Z,100383.63
2023-02-05T19:49:01.852Z,100394.28
2023-02-05T19:51:28.407Z,100400.44
2023-02-05T19:53:59.328Z,100400.41
2023-02-05T19:56:26.624Z,100395.09
2023-02-05T19:58:54.985Z,100402.34
2023-02-05T20:01:24.297Z,100400.19
2023-02-05T20:03:57.162Z,100389.47
2023-02-05T20:06:26.117Z,100409.78
2023-02-05T20:08:52.896Z,100409.91
2023-02-05T20:11:20.353Z,100415.75
2023-02-05T20:13:47.380Z,100424.31
2023-02-05T20:16:17.518Z,100421.69
2023-02-05T20:18:45.344Z,100410.28
2023-02-05T20:21:15.447Z,100409.09
2023-02-05T20:23:42.073Z,100403.22
2023-02-05T20:26:09.148Z,100406.88
2023-02-05T20:28:59.795Z,100407.00
2023-02-05T20:31:34.446Z,100408.00
2023-02-05T20:34:07.148Z,100417.66
2023-02-05T20:36:35.451Z,100420.13
2023-02-05T20:39:06.944Z,100420.94
2023-02-05T20:41:34.038Z,100429.66
2023-02-05T20:44:00.524Z,100436.44
2023-02-05T20:46:27.256Z,100445.66
2023-02-05T20:48:53.773Z,100444.88
2023-02-05T20:51:22.863Z,100451.25
2023-02-05T20:53:50.128Z,100446.66
2023-02-05T20:56:19.489Z,100450.88
2023-02-05T20:58:47.007Z,100450.94
2023-02-05T21:01:21.908Z,100454.31
2023-02-05T21:03:50.967Z,100452.16
2023-02-05T21:06:19.459Z,100449.97
2023-02-05T21:08:47.772Z,100447.13
2023-02-05T21:11:15.475Z,100455.25
2023-02-05T21:13:43.350Z,100461.94
2023-02-05T21:16:11.171Z,100460.84
2023-02-05T21:18:38.907Z,100463.31
2023-02-05T21:21:10.641Z,100472.59
2023-02-05T21:23:37.270Z,100478.75
2023-02-05T21:26:04.745Z,100476.31
2023-02-05T21:28:32.427Z,100476.03
2023-02-05T21:31:07.374Z,100482.00
2023-02-05T21:33:35.341Z,100480.69
2023-02-05T21:36:07.529Z,100491.28
2023-02-05T21:38:41.123Z,100495.16
2023-02-05T21:41:12.595Z,100488.38
2023-02-05T21:43:39.143Z,100494.16
2023-02-05T21:46:08.393Z,100502.38
2023-02-05T21:48:34.904Z,100491.59
2023-02-05T21:51:15.356Z,100499.56
2023-02-05T21:53:42.404Z,100506.03
2023-02-05T21:56:16.482Z,100516.31
2023-02-05T21:58:43.265Z,100514.84
2023-02-05T22:01:15.087Z,100511.31
2023-02-05T22:03:43.067Z,100511.38
2023-02-05T22:06:09.933Z,100515.28
2023-02-05T22:08:38.104Z,100523.34
2023-02-05T22:11:06.995Z,100528.69
2023-02-05T22:13:35.575Z,100523.34
2023-02-05T22:16:19.612Z,100532.16
2023-02-05T22:18:46.477Z,100538.09
2023-02-05T22:21:16.296Z,100540.31
2023-02-05T22:23:45.071Z,100547.91
2023-02-05T22:26:12.109Z,100543.44
2023-02-05T22:28:38.782Z,100543.84
2023-02-05T22:31:10.675Z,100550.31
2023-02-05T22:33:39.332Z,100552.63
2023-02-05T22:36:07.771Z,100551.16
2023-02-05T22:38:36.358Z,100558.56
2023-02-05T22:41:11.589Z,100553.03
2023-02-05T22:43:38.190Z,100561.31
2023-02-05T22:46:10.283Z,100564.75
2023-02-05T22:48:38.960Z,100576.88
2023-02-05T22:51:08.811Z,100576.31
2023-02-05T22:53:35.798Z,100576.75
2023-02-05T22:56:07.222Z,100574.03
2023-02-05T22:58:34.539Z,100576.94
2023-02-05T23:01:13.143Z,100583.13
2023-02-05T23:03:39.912Z,100578.81
2023-02-05T23:06:18.282Z,100572.56
2023-02-05T23:08:50.333Z,100581.63
2023-02-05T23:11:16.820Z,100579.59
2023-02-05T23:13:43.312Z,100581.97
2023-02-05T23:16:13.255Z,100579.06
2023-02-05T23:18:41.864Z,100590.75
2023-02-05T23:21:10.605Z,100589.50
2023-02-05T23:23:37.097Z,100593.66
2023-02-05T23:26:12.351Z,100587.09
2023-02-05T23:28:39.476Z,100588.03
2023-02-05T23:31:06.602Z,100592.94
2023-02-05T23:33:33.939Z,100605.56
2023-02-05T23:36:01.755Z,100592.78
2023-02-05T23:38:28.382Z,100593.13
2023-02-05T23:40:55.972Z,100595.38
2023-02-05T23:43:23.380Z,100592.63
2023-02-05T23:45:50.935Z,100592.31
2023-02-05T23:48:17.872Z,100595.03
2023-02-05T23:50:45.079Z,100589.59
2023-02-05T23:53:11.849Z,100591.88
2023-02-05T23:55:40.274Z,100601.47
2023-02-05T23:58:08.019Z,100598.53
